Time;durP1;ratioP1;P1;durP2;ratioP2;P2;SDS_P1;SDS_P2;PMS_P1;PMS_P2;Temp;Humidity;BMP_temperature;BMP_pressure;BME280_temperature;BME280_humidity;BME280_pressure;Samples;Min_cycle;Max_cycle;Signal;HPM_P1;HPM_P2
2023/03/08 00:01:35;;;;;;;23.30;13.40;;;;;;;;;;5054578;28;20421;-62
2023/03/08 00:04:01;;;;;;;21.80;13.87;;;;;;;;;;5053419;28;20477;-63
2023/03/08 00:06:27;;;;;;;23.53;13.50;;;;;;;;;;5054626;28;20832;-62
2023/03/08 00:08:57;;;;;;;17.97;13.00;;;;;;;;;;5054106;28;20889;-61
2023/03/08 00:11:24;;;;;;;19.90;12.80;;;;;;;;;;5054236;28;20458;-57
2023/03/08 00:13:50;;;;;;;21.10;13.77;;;;;;;;;;5053739;28;20689;-60
2023/03/08 00:16:16;;;;;;;20.17;13.57;;;;;;;;;;5053767;28;20390;-60
2023/03/08 00:18:44;;;;;;;23.50;13.07;;;;;;;;;;5053699;28;20407;-60
2023/03/08 00:21:12;;;;;;;16.70;13.02;;;;;;;;;;5053638;28;20422;-60
2023/03/08 00:23:38;;;;;;;19.17;12.97;;;;;;;;;;5053619;28;20247;-59
2023/03/08 00:26:04;;;;;;;26.40;14.80;;;;;;;;;;5052255;28;20449;-60
2023/03/08 00:28:30;;;;;;;19.65;13.27;;;;;;;;;;5053721;28;20177;-57
2023/03/08 00:31:01;;;;;;;24.42;14.20;;;;;;;;;;5052258;28;20192;-59
2023/03/08 00:33:28;;;;;;;22.52;14.02;;;;;;;;;;5053961;28;20267;-58
2023/03/08 00:35:57;;;;;;;21.90;13.85;;;;;;;;;;5053513;28;20185;-58
2023/03/08 00:38:23;;;;;;;19.67;12.48;;;;;;;;;;5053583;28;20172;-58
2023/03/08 00:40:49;;;;;;;16.53;13.33;;;;;;;;;;5053245;28;20556;-60
2023/03/08 00:43:18;;;;;;;22.48;13.68;;;;;;;;;;5053152;28;20441;-58
2023/03/08 00:45:44;;;;;;;18.67;13.57;;;;;;;;;;5053134;28;20184;-58
2023/03/08 00:48:10;;;;;;;18.27;12.73;;;;;;;;;;5053453;28;20206;-59
2023/03/08 00:50:36;;;;;;;20.63;12.80;;;;;;;;;;5053376;28;20181;-58
2023/03/08 00:53:01;;;;;;;27.13;12.50;;;;;;;;;;5052530;28;20380;-58
2023/03/08 00:55:27;;;;;;;23.03;13.63;;;;;;;;;;5053223;28;20406;-60
2023/03/08 00:57:53;;;;;;;17.03;12.37;;;;;;;;;;5053509;28;20833;-59
2023/03/08 01:00:19;;;;;;;20.00;12.97;;;;;;;;;;5051510;28;20482;-59
2023/03/08 01:02:45;;;;;;;18.63;12.98;;;;;;;;;;5053248;28;20894;-59
2023/03/08 01:05:12;;;;;;;19.07;12.50;;;;;;;;;;5052356;28;20211;-59
2023/03/08 01:07:38;;;;;;;17.73;12.07;;;;;;;;;;5050829;28;20435;-58
2023/03/08 01:10:05;;;;;;;13.77;11.53;;;;;;;;;;5052886;28;20275;-60
2023/03/08 01:12:34;;;;;;;20.30;12.32;;;;;;;;;;5052773;28;20407;-58
2023/03/08 01:15:01;;;;;;;17.38;11.75;;;;;;;;;;5052763;28;20195;-58
2023/03/08 01:17:27;;;;;;;21.08;12.18;;;;;;;;;;5051283;28;20294;-58
2023/03/08 01:19:53;;;;;;;14.43;11.33;;;;;;;;;;5052666;28;20253;-58
2023/03/08 01:22:19;;;;;;;19.97;11.23;;;;;;;;;;5052482;28;20422;-58
2023/03/08 01:24:45;;;;;;;15.48;11.48;;;;;;;;;;5052274;28;20954;-58
2023/03/08 01:27:11;;;;;;;17.63;11.75;;;;;;;;;;5052425;28;20560;-58
2023/03/08 01:29:37;;;;;;;15.48;11.85;;;;;;;;;;5052463;28;20180;-58
2023/03/08 01:32:03;;;;;;;15.60;11.10;;;;;;;;;;5052332;28;20654;-58
2023/03/08 01:34:29;;;;;;;16.55;11.13;;;;;;;;;;5052123;28;20411;-58
2023/03/08 01:36:55;;;;;;;15.17;11.60;;;;;;;;;;5051568;28;20222;-58
2023/03/08 01:39:21;;;;;;;16.20;11.77;;;;;;;;;;5052073;28;20438;-58
2023/03/08 01:41:47;;;;;;;17.13;11.13;;;;;;;;;;5052450;28;20860;-59
2023/03/08 01:44:17;;;;;;;15.23;11.13;;;;;;;;;;5052177;28;20470;-58
2023/03/08 01:46:43;;;;;;;13.25;9.90;;;;;;;;;;5052207;28;20422;-57
2023/03/08 01:49:09;;;;;;;18.73;11.63;;;;;;;;;;5052035;28;20573;-59
2023/03/08 01:51:39;;;;;;;19.55;11.35;;;;;;;;;;5052170;28;20385;-60
2023/03/08 01:54:17;;;;;;;11.55;10.35;;;;;;;;;;5052396;28;20177;-59
2023/03/08 01:56:44;;;;;;;12.60;10.85;;;;;;;;;;5052724;28;20218;-65
2023/03/08 01:59:11;;;;;;;14.70;11.10;;;;;;;;;;5050724;28;20187;-58
2023/03/08 02:01:37;;;;;;;11.80;10.05;;;;;;;;;;5052073;28;20180;-60
2023/03/08 02:04:03;;;;;;;15.48;10.10;;;;;;;;;;5052479;28;20570;-59
2023/03/08 02:06:29;;;;;;;13.93;10.18;;;;;;;;;;5051199;28;20168;-59
2023/03/08 02:08:55;;;;;;;15.80;10.50;;;;;;;;;;5051821;28;20196;-59
2023/03/08 02:11:24;;;;;;;23.02;12.30;;;;;;;;;;5051457;28;20385;-59
2023/03/08 02:13:51;;;;;;;13.95;11.13;;;;;;;;;;5051835;28;20179;-58
2023/03/08 02:16:17;;;;;;;14.27;10.95;;;;;;;;;;5051794;28;20544;-59
2023/03/08 02:18:53;;;;;;;14.52;10.73;;;;;;;;;;5051641;28;20678;-58
2023/03/08 02:21:19;;;;;;;16.02;11.18;;;;;;;;;;5051234;28;20687;-59
2023/03/08 02:23:45;;;;;;;17.70;11.15;;;;;;;;;;5051629;28;20230;-59
2023/03/08 02:26:14;;;;;;;15.63;11.57;;;;;;;;;;5051717;28;20661;-59
2023/03/08 02:28:40;;;;;;;17.08;11.88;;;;;;;;;;5051860;28;20409;-59
2023/03/08 02:31:06;;;;;;;17.73;11.53;;;;;;;;;;5051517;28;20176;-59
2023/03/08 02:33:35;;;;;;;16.60;11.88;;;;;;;;;;5051702;28;20390;-59
2023/03/08 02:36:04;;;;;;;18.77;11.93;;;;;;;;;;5051840;28;20602;-59
2023/03/08 02:38:31;;;;;;;17.38;11.80;;;;;;;;;;5051427;28;20250;-59
2023/03/08 02:40:57;;;;;;;18.65;10.95;;;;;;;;;;5051763;28;20188;-59
2023/03/08 02:43:23;;;;;;;18.33;11.43;;;;;;;;;;5051566;28;20208;-59
2023/03/08 02:45:49;;;;;;;17.20;11.50;;;;;;;;;;5051719;28;20480;-59
2023/03/08 02:48:16;;;;;;;21.40;11.75;;;;;;;;;;5051654;28;20402;-59
2023/03/08 02:50:44;;;;;;;17.30;12.40;;;;;;;;;;5051734;28;20176;-60
2023/03/08 02:53:11;;;;;;;15.07;11.50;;;;;;;;;;5051788;28;20261;-59
2023/03/08 02:55:39;;;;;;;19.42;13.18;;;;;;;;;;5051757;28;20176;-59
2023/03/08 02:58:05;;;;;;;19.50;12.52;;;;;;;;;;5051834;28;20168;-59
2023/03/08 03:00:34;;;;;;;18.60;12.73;;;;;;;;;;5051586;28;20208;-59
2023/03/08 03:03:00;;;;;;;21.67;11.90;;;;;;;;;;5051405;28;20188;-60
2023/03/08 03:05:26;;;;;;;17.97;12.30;;;;;;;;;;5051579;28;20173;-59
2023/03/08 03:07:54;;;;;;;14.20;11.33;;;;;;;;;;5050432;28;20901;-59
2023/03/08 03:10:20;;;;;;;16.52;11.82;;;;;;;;;;5051424;28;20791;-60
2023/03/08 03:12:46;;;;;;;15.10;11.13;;;;;;;;;;5051482;28;20180;-59
2023/03/08 03:15:12;;;;;;;17.00;12.23;;;;;;;;;;5051656;28;20651;-60
2023/03/08 03:17:38;;;;;;;14.40;11.70;;;;;;;;;;5051838;28;20786;-60
2023/03/08 03:20:06;;;;;;;15.48;10.73;;;;;;;;;;5051422;28;20651;-60
2023/03/08 03:22:32;;;;;;;16.92;12.48;;;;;;;;;;5050737;28;20684;-60
2023/03/08 03:24:58;;;;;;;18.73;12.27;;;;;;;;;;5051150;28;21012;-60
2023/03/08 03:27:24;;;;;;;15.60;11.97;;;;;;;;;;5051208;28;20211;-60
2023/03/08 03:29:50;;;;;;;15.60;12.00;;;;;;;;;;5051334;28;20406;-60
2023/03/08 03:32:16;;;;;;;15.73;11.77;;;;;;;;;;5053908;28;20406;-60
2023/03/08 03:34:43;;;;;;;15.53;11.80;;;;;;;;;;5054990;28;20947;-60
2023/03/08 03:37:09;;;;;;;17.88;11.63;;;;;;;;;;5054831;28;20422;-60
2023/03/08 03:39:36;;;;;;;14.93;11.87;;;;;;;;;;5054894;28;20184;-60
2023/03/08 03:42:02;;;;;;;21.00;12.37;;;;;;;;;;5053522;28;20415;-60
2023/03/08 03:44:31;;;;;;;16.63;11.87;;;;;;;;;;5055031;28;20482;-60
2023/03/08 03:46:57;;;;;;;13.50;11.30;;;;;;;;;;5054509;28;20414;-58
2023/03/08 03:49:23;;;;;;;20.43;11.47;;;;;;;;;;5054665;28;20925;-59
2023/03/08 03:51:51;;;;;;;18.60;11.70;;;;;;;;;;5054285;28;20390;-59
2023/03/08 03:54:17;;;;;;;17.60;11.77;;;;;;;;;;5053272;28;20876;-59
2023/03/08 03:56:43;;;;;;;15.37;11.97;;;;;;;;;;5054330;28;20191;-60
2023/03/08 03:59:09;;;;;;;17.40;11.50;;;;;;;;;;5054517;28;20886;-59
2023/03/08 04:01:35;;;;;;;16.07;11.00;;;;;;;;;;5054406;28;20413;-59
2023/03/08 04:04:01;;;;;;;14.73;10.83;;;;;;;;;;5054349;28;20466;-59
2023/03/08 04:06:28;;;;;;;14.50;10.90;;;;;;;;;;5054250;28;20447;-59
2023/03/08 04:08:55;;;;;;;16.03;11.00;;;;;;;;;;5053906;28;20390;-59
2023/03/08 04:11:22;;;;;;;17.37;11.80;;;;;;;;;;5054357;28;20427;-60
2023/03/08 04:13:48;;;;;;;18.63;11.40;;;;;;;;;;5052720;28;20929;-60
2023/03/08 04:16:21;;;;;;;14.53;11.37;;;;;;;;;;5054060;28;20473;-60
2023/03/08 04:18:48;;;;;;;16.08;10.90;;;;;;;;;;5052582;28;20427;-59
2023/03/08 04:21:14;;;;;;;14.10;9.80;;;;;;;;;;5054037;28;20176;-59
2023/03/08 04:23:40;;;;;;;14.77;10.50;;;;;;;;;;5054116;28;20451;-60
2023/03/08 04:26:08;;;;;;;15.13;10.50;;;;;;;;;;5053667;28;20443;-60
2023/03/08 04:28:37;;;;;;;12.93;10.60;;;;;;;;;;5054160;28;20423;-60
2023/03/08 04:31:12;;;;;;;16.17;11.50;;;;;;;;;;5053554;28;20937;-60
2023/03/08 04:33:38;;;;;;;12.48;10.30;;;;;;;;;;5053876;28;20438;-59
2023/03/08 04:36:04;;;;;;;12.43;10.33;;;;;;;;;;5054152;28;20259;-60
2023/03/08 04:38:32;;;;;;;16.13;10.97;;;;;;;;;;5053376;28;20415;-59
2023/03/08 04:41:01;;;;;;;11.13;10.00;;;;;;;;;;5053691;28;20454;-58
2023/03/08 04:43:27;;;;;;;14.40;10.63;;;;;;;;;;5053507;28;20795;-58
2023/03/08 04:45:55;;;;;;;12.10;10.10;;;;;;;;;;5054062;28;20417;-58
2023/03/08 04:48:22;;;;;;;14.50;11.60;;;;;;;;;;5051970;28;20423;-58
2023/03/08 04:50:53;;;;;;;20.13;11.40;;;;;;;;;;5052288;28;21031;-58
2023/03/08 04:53:19;;;;;;;15.20;10.50;;;;;;;;;;5053368;28;20393;-58
2023/03/08 04:55:45;;;;;;;16.90;11.40;;;;;;;;;;5053367;28;20580;-58
2023/03/08 04:58:11;;;;;;;13.87;10.70;;;;;;;;;;5053291;28;20881;-58
2023/03/08 05:00:37;;;;;;;17.77;12.07;;;;;;;;;;5053193;28;20423;-59
2023/03/08 05:03:03;;;;;;;17.30;11.47;;;;;;;;;;5052670;28;20551;-59
2023/03/08 05:05:31;;;;;;;16.20;11.47;;;;;;;;;;5052136;28;20857;-59
2023/03/08 05:08:04;;;;;;;11.93;10.60;;;;;;;;;;5052852;28;20469;-58
2023/03/08 05:10:33;;;;;;;15.07;11.77;;;;;;;;;;5052711;28;20383;-60
2023/03/08 05:12:59;;;;;;;12.07;10.17;;;;;;;;;;5052439;28;20493;-61
2023/03/08 05:15:25;;;;;;;16.10;11.43;;;;;;;;;;5053057;28;20791;-61
2023/03/08 05:17:51;;;;;;;16.83;11.97;;;;;;;;;;5052617;28;20860;-60
2023/03/08 05:20:17;;;;;;;20.40;11.40;;;;;;;;;;5052940;28;20502;-60
2023/03/08 05:22:44;;;;;;;15.10;10.57;;;;;;;;;;5052755;28;20432;-61
2023/03/08 05:25:10;;;;;;;14.83;11.57;;;;;;;;;;5053033;28;20473;-60
2023/03/08 05:27:36;;;;;;;15.30;12.03;;;;;;;;;;5052864;28;20426;-60
2023/03/08 05:30:05;;;;;;;15.10;12.40;;;;;;;;;;5052666;28;20878;-60
2023/03/08 05:32:31;;;;;;;14.98;11.43;;;;;;;;;;5052653;28;20438;-60
2023/03/08 05:34:57;;;;;;;14.27;11.57;;;;;;;;;;5052827;28;20784;-60
2023/03/08 05:37:24;;;;;;;13.40;10.83;;;;;;;;;;5052783;28;20395;-60
2023/03/08 05:39:50;;;;;;;12.30;10.50;;;;;;;;;;5052642;28;20441;-59
2023/03/08 05:42:17;;;;;;;14.47;11.20;;;;;;;;;;5052617;28;20407;-60
2023/03/08 05:44:43;;;;;;;14.40;10.90;;;;;;;;;;5052719;28;20454;-60
2023/03/08 05:47:09;;;;;;;14.07;11.27;;;;;;;;;;5052609;28;20392;-60
2023/03/08 05:49:35;;;;;;;12.80;10.70;;;;;;;;;;5052337;28;20501;-57
2023/03/08 05:52:01;;;;;;;12.37;11.03;;;;;;;;;;5052580;28;20385;-60
2023/03/08 05:54:29;;;;;;;12.30;11.00;;;;;;;;;;5051784;28;20381;-60
2023/03/08 05:56:55;;;;;;;13.17;11.27;;;;;;;;;;5052348;28;20959;-65
2023/03/08 05:59:22;;;;;;;12.03;9.87;;;;;;;;;;5050794;28;20431;-60
2023/03/08 06:01:48;;;;;;;10.93;9.80;;;;;;;;;;5052430;28;20451;-59
2023/03/08 06:04:14;;;;;;;10.97;8.90;;;;;;;;;;5052641;28;20490;-61
2023/03/08 06:06:40;;;;;;;13.00;10.27;;;;;;;;;;5052582;28;20415;-60
2023/03/08 06:09:09;;;;;;;30.20;18.50;;;;;;;;;;5052555;28;20810;-62
2023/03/08 06:11:34;;;;;;;13.10;9.23;;;;;;;;;;5052311;28;20898;-59
2023/03/08 06:14:00;;;;;;;16.43;10.00;;;;;;;;;;5052244;28;20646;-59
2023/03/08 06:16:26;;;;;;;10.60;9.50;;;;;;;;;;5052169;28;20868;-59
2023/03/08 06:18:52;;;;;;;16.03;10.97;;;;;;;;;;5052101;28;20413;-59
2023/03/08 06:21:22;;;;;;;12.83;10.23;;;;;;;;;;5051956;28;20903;-61
2023/03/08 06:23:49;;;;;;;12.73;10.80;;;;;;;;;;5051834;28;20462;-60
2023/03/08 06:26:17;;;;;;;12.23;9.93;;;;;;;;;;5050693;28;20853;-60
2023/03/08 06:28:43;;;;;;;12.47;9.90;;;;;;;;;;5052078;28;20369;-60
2023/03/08 06:31:14;;;;;;;10.87;9.67;;;;;;;;;;5052104;28;20443;-59
2023/03/08 06:33:40;;;;;;;14.60;11.03;;;;;;;;;;5051922;28;20762;-59
2023/03/08 06:36:17;;;;;;;14.77;10.90;;;;;;;;;;5050694;28;20446;-60
2023/03/08 06:38:43;;;;;;;14.43;10.90;;;;;;;;;;5051963;28;20431;-60
2023/03/08 06:41:10;;;;;;;13.97;11.13;;;;;;;;;;5051635;28;20409;-60
2023/03/08 06:43:36;;;;;;;15.80;11.97;;;;;;;;;;5051710;28;20462;-60
2023/03/08 06:46:09;;;;;;;14.73;11.47;;;;;;;;;;5051468;28;20386;-60
2023/03/08 06:48:36;;;;;;;14.30;11.23;;;;;;;;;;5051657;28;20419;-61
2023/03/08 06:51:02;;;;;;;16.27;13.37;;;;;;;;;;5051676;28;20414;-60
2023/03/08 06:53:28;;;;;;;16.93;11.77;;;;;;;;;;5051135;28;20428;-60
2023/03/08 06:55:54;;;;;;;12.63;10.93;;;;;;;;;;5051885;28;20517;-61
2023/03/08 06:58:20;;;;;;;17.27;12.37;;;;;;;;;;5052049;28;20474;-59
2023/03/08 07:00:48;;;;;;;15.63;11.70;;;;;;;;;;5051939;28;20424;-61
2023/03/08 07:03:15;;;;;;;13.57;11.77;;;;;;;;;;5051724;28;20426;-59
2023/03/08 07:05:41;;;;;;;15.90;11.30;;;;;;;;;;5052387;28;20362;-59
2023/03/08 07:08:07;;;;;;;15.13;11.40;;;;;;;;;;5055781;28;20411;-59
2023/03/08 07:10:33;;;;;;;19.63;11.67;;;;;;;;;;5055549;28;20397;-59
2023/03/08 07:12:59;;;;;;;17.13;10.93;;;;;;;;;;5055601;28;20414;-59
2023/03/08 07:15:25;;;;;;;13.93;11.13;;;;;;;;;;5054344;28;20809;-61
2023/03/08 07:17:54;;;;;;;14.60;11.33;;;;;;;;;;5054227;28;20443;-60
2023/03/08 07:20:21;;;;;;;17.47;13.70;;;;;;;;;;5055517;28;20563;-61
2023/03/08 07:22:47;;;;;;;15.87;12.10;;;;;;;;;;5055290;28;20393;-60
2023/03/08 07:25:14;;;;;;;19.23;11.77;;;;;;;;;;5053924;28;20466;-61
2023/03/08 07:27:40;;;;;;;17.67;13.10;;;;;;;;;;5055550;28;20490;-60
2023/03/08 07:30:08;;;;;;;17.80;13.00;;;;;;;;;;5055349;28;20511;-62
2023/03/08 07:32:34;;;;;;;14.23;12.30;;;;;;;;;;5054204;28;20423;-60
2023/03/08 07:35:03;;;;;;;15.80;13.18;;;;;;;;;;5055202;28;20273;-59
2023/03/08 07:37:29;;;;;;;19.47;12.90;;;;;;;;;;5055091;28;20187;-59
2023/03/08 07:39:55;;;;;;;14.47;12.23;;;;;;;;;;5055105;28;20374;-59
2023/03/08 07:42:21;;;;;;;22.00;12.47;;;;;;;;;;5055039;28;20428;-59
2023/03/08 07:44:49;;;;;;;16.87;12.00;;;;;;;;;;5054834;28;20532;-59
2023/03/08 07:47:15;;;;;;;16.30;11.77;;;;;;;;;;5054789;28;20407;-59
2023/03/08 07:49:41;;;;;;;13.50;11.77;;;;;;;;;;5053283;28;20514;-58
2023/03/08 07:52:07;;;;;;;16.37;11.00;;;;;;;;;;5053325;28;20947;-58
2023/03/08 07:54:33;;;;;;;9.53;8.53;;;;;;;;;;5054504;28;20470;-59
2023/03/08 07:56:59;;;;;;;9.70;8.23;;;;;;;;;;5053148;28;20405;-58
2023/03/08 07:59:25;;;;;;;8.73;7.90;;;;;;;;;;5054517;28;20413;-59
2023/03/08 08:01:53;;;;;;;12.83;8.50;;;;;;;;;;5054839;28;20780;-58
2023/03/08 08:04:21;;;;;;;8.70;7.77;;;;;;;;;;5054380;28;20927;-58
2023/03/08 08:06:48;;;;;;;11.50;8.80;;;;;;;;;;5054456;28;20465;-58
2023/03/08 08:09:13;;;;;;;10.53;8.30;;;;;;;;;;5054473;28;20924;-58
2023/03/08 08:11:40;;;;;;;9.47;8.40;;;;;;;;;;5054283;28;20465;-58
2023/03/08 08:14:06;;;;;;;8.03;7.23;;;;;;;;;;5052943;28;20435;-59
2023/03/08 08:16:34;;;;;;;7.50;6.80;;;;;;;;;;5054067;28;20422;-58
2023/03/08 08:19:00;;;;;;;10.43;7.63;;;;;;;;;;5053256;28;20472;-58
2023/03/08 08:21:26;;;;;;;6.83;6.23;;;;;;;;;;5054075;28;20439;-59
2023/03/08 08:23:56;;;;;;;6.33;5.73;;;;;;;;;;5053532;28;20876;-58
2023/03/08 08:26:25;;;;;;;5.90;5.50;;;;;;;;;;5053452;28;20863;-58
2023/03/08 08:28:52;;;;;;;8.13;5.70;;;;;;;;;;5053496;28;20491;-58
2023/03/08 08:31:22;;;;;;;5.00;4.60;;;;;;;;;;5053838;28;20414;-59
2023/03/08 08:33:48;;;;;;;5.67;5.30;;;;;;;;;;5052765;28;20426;-60
2023/03/08 08:36:18;;;;;;;5.47;4.80;;;;;;;;;;5053427;28;20418;-59
2023/03/08 08:38:45;;;;;;;4.20;4.10;;;;;;;;;;5053385;28;20443;-60
2023/03/08 08:41:11;;;;;;;4.27;4.07;;;;;;;;;;5053574;28;20443;-60
2023/03/08 08:43:37;;;;;;;5.23;4.00;;;;;;;;;;5053549;28;20825;-59
2023/03/08 08:46:06;;;;;;;4.07;3.87;;;;;;;;;;5053610;28;20406;-60
2023/03/08 08:48:36;;;;;;;3.70;3.27;;;;;;;;;;5053509;28;20422;-59
2023/03/08 08:51:03;;;;;;;4.10;3.90;;;;;;;;;;5053551;28;20569;-59
2023/03/08 08:53:29;;;;;;;4.10;3.70;;;;;;;;;;5053328;28;20497;-60
2023/03/08 08:55:55;;;;;;;4.00;3.70;;;;;;;;;;5053192;28;20441;-59
2023/03/08 08:58:21;;;;;;;4.57;4.27;;;;;;;;;;5052782;28;20419;-57
2023/03/08 09:00:47;;;;;;;6.07;4.60;;;;;;;;;;5053166;28;20439;-57
2023/03/08 09:03:13;;;;;;;4.90;4.53;;;;;;;;;;5053501;28;20433;-57
2023/03/08 09:05:40;;;;;;;4.60;4.20;;;;;;;;;;5053641;28;20411;-57
2023/03/08 09:08:06;;;;;;;4.77;4.50;;;;;;;;;;5053543;28;20824;-57
2023/03/08 09:10:33;;;;;;;5.87;4.53;;;;;;;;;;5053116;28;20435;-60
2023/03/08 09:12:59;;;;;;;5.17;4.77;;;;;;;;;;5053257;28;20431;-58
2023/03/08 09:15:27;;;;;;;6.40;5.47;;;;;;;;;;5053095;28;20989;-58
2023/03/08 09:17:53;;;;;;;5.27;4.87;;;;;;;;;;5053501;28;20439;-58
2023/03/08 09:20:19;;;;;;;5.60;5.10;;;;;;;;;;5053414;28;20407;-58
2023/03/08 09:22:48;;;;;;;8.10;4.87;;;;;;;;;;5053442;28;20875;-59
2023/03/08 09:25:14;;;;;;;6.27;5.77;;;;;;;;;;5053091;28;20850;-59
2023/03/08 09:27:40;;;;;;;5.67;5.33;;;;;;;;;;5053280;28;20416;-59
2023/03/08 09:30:08;;;;;;;6.97;5.40;;;;;;;;;;5052425;28;20419;-59
2023/03/08 09:32:35;;;;;;;6.23;5.67;;;;;;;;;;5052890;28;20866;-60
2023/03/08 09:35:01;;;;;;;6.43;5.57;;;;;;;;;;5053098;28;20426;-59
2023/03/08 09:37:30;;;;;;;6.40;5.80;;;;;;;;;;5053342;28;20801;-58
2023/03/08 09:39:57;;;;;;;6.50;5.63;;;;;;;;;;5053135;28;20449;-58
2023/03/08 09:42:29;;;;;;;7.77;5.73;;;;;;;;;;5053205;28;20929;-59
2023/03/08 09:45:01;;;;;;;5.17;4.83;;;;;;;;;;5053084;28;20808;-59
2023/03/08 09:47:47;;;;;;;7.57;5.53;;;;;;;;;;5052847;28;20410;-59
2023/03/08 09:50:14;;;;;;;5.90;5.37;;;;;;;;;;5052863;28;20437;-59
2023/03/08 09:52:42;;;;;;;5.80;5.40;;;;;;;;;;5052967;28;20453;-59
2023/03/08 09:55:26;;;;;;;5.10;4.80;;;;;;;;;;5052813;28;20978;-59
2023/03/08 09:57:55;;;;;;;5.27;4.90;;;;;;;;;;5052991;28;20426;-59
2023/03/08 10:00:26;;;;;;;4.80;4.50;;;;;;;;;;5052724;28;20419;-59
2023/03/08 10:02:55;;;;;;;5.10;4.80;;;;;;;;;;5052548;28;20398;-58
2023/03/08 10:05:21;;;;;;;4.40;4.20;;;;;;;;;;5052286;28;20962;-59
2023/03/08 10:07:53;;;;;;;5.17;4.80;;;;;;;;;;5052500;28;20403;-59
2023/03/08 10:10:35;;;;;;;4.80;4.37;;;;;;;;;;5052509;28;20406;-59
2023/03/08 10:13:19;;;;;;;5.03;3.70;;;;;;;;;;5052130;28;20434;-58
2023/03/08 10:15:49;;;;;;;4.27;4.07;;;;;;;;;;5052333;28;20513;-60
2023/03/08 10:18:19;;;;;;;3.80;3.60;;;;;;;;;;5052276;28;20407;-59
2023/03/08 10:20:46;;;;;;;4.13;3.93;;;;;;;;;;5051143;28;20477;-59
2023/03/08 10:23:20;;;;;;;4.73;4.43;;;;;;;;;;5052104;28;20488;-58
2023/03/08 10:25:47;;;;;;;4.17;3.83;;;;;;;;;;5052230;28;20414;-59
2023/03/08 10:28:33;;;;;;;4.10;3.73;;;;;;;;;;5052513;28;20393;-59
2023/03/08 10:31:00;;;;;;;4.50;4.10;;;;;;;;;;5052059;28;20454;-60
2023/03/08 10:33:31;;;;;;;4.40;4.00;;;;;;;;;;5052397;28;20933;-59
2023/03/08 10:36:03;;;;;;;4.43;4.23;;;;;;;;;;5052109;28;20431;-60
2023/03/08 10:38:30;;;;;;;8.30;4.00;;;;;;;;;;5052975;28;20403;-60
2023/03/08 10:41:06;;;;;;;3.93;3.73;;;;;;;;;;5054727;28;20466;-59
2023/03/08 10:43:39;;;;;;;4.73;4.53;;;;;;;;;;5056504;28;20406;-59
2023/03/08 10:46:11;;;;;;;4.13;3.93;;;;;;;;;;5056528;28;20488;-58
2023/03/08 10:48:37;;;;;;;7.70;3.97;;;;;;;;;;5056323;28;20927;-59
2023/03/08 10:51:05;;;;;;;5.80;4.30;;;;;;;;;;5056326;28;20513;-58
2023/03/08 10:53:32;;;;;;;4.40;4.20;;;;;;;;;;5056189;28;20417;-59
2023/03/08 10:55:59;;;;;;;5.43;5.00;;;;;;;;;;5055949;28;20489;-59
2023/03/08 10:58:38;;;;;;;9.30;4.43;;;;;;;;;;5056248;28;20442;-59
2023/03/08 11:01:23;;;;;;;4.40;4.20;;;;;;;;;;5055866;28;20905;-59
2023/03/08 11:03:58;;;;;;;5.03;4.73;;;;;;;;;;5055594;28;20478;-60
2023/03/08 11:06:25;;;;;;;3.80;3.70;;;;;;;;;;5055937;28;20495;-61
2023/03/08 11:08:56;;;;;;;4.63;4.30;;;;;;;;;;5056091;28;20407;-60
2023/03/08 11:11:22;;;;;;;5.50;5.00;;;;;;;;;;5055901;28;20449;-60
2023/03/08 11:13:49;;;;;;;3.70;3.50;;;;;;;;;;5055702;28;20419;-59
2023/03/08 11:16:33;;;;;;;5.13;4.50;;;;;;;;;;5055858;28;20457;-58
2023/03/08 11:19:17;;;;;;;5.03;4.63;;;;;;;;;;5056026;28;20421;-58
2023/03/08 11:21:46;;;;;;;3.93;3.73;;;;;;;;;;5055718;28;20466;-57
2023/03/08 11:24:12;;;;;;;3.87;3.77;;;;;;;;;;5055615;28;20556;-58
2023/03/08 11:26:38;;;;;;;4.90;3.97;;;;;;;;;;5055600;28;20472;-58
2023/03/08 11:29:14;;;;;;;3.73;3.53;;;;;;;;;;5055700;28;20418;-58
2023/03/08 11:31:40;;;;;;;4.03;3.80;;;;;;;;;;5055612;28;20445;-58
2023/03/08 11:34:17;;;;;;;3.37;3.17;;;;;;;;;;5055644;28;20505;-58
2023/03/08 11:36:48;;;;;;;2.87;2.73;;;;;;;;;;5054290;28;20442;-58
2023/03/08 11:39:18;;;;;;;3.00;2.90;;;;;;;;;;5055619;28;20399;-58
2023/03/08 11:41:53;;;;;;;3.50;3.30;;;;;;;;;;5055450;28;20442;-58
2023/03/08 11:44:37;;;;;;;3.00;2.90;;;;;;;;;;5055386;28;20969;-58
2023/03/08 11:47:11;;;;;;;3.50;3.20;;;;;;;;;;5055633;28;20435;-58
2023/03/08 11:49:37;;;;;;;5.50;2.60;;;;;;;;;;5055318;28;20406;-58
2023/03/08 11:52:20;;;;;;;2.03;1.93;;;;;;;;;;5055028;28;20445;-60
2023/03/08 11:55:00;;;;;;;1.90;1.90;;;;;;;;;;5055758;28;20410;-60
2023/03/08 11:57:29;;;;;;;1.60;1.60;;;;;;;;;;5056157;28;20466;-60
2023/03/08 12:00:01;;;;;;;1.80;1.80;;;;;;;;;;5055692;28;20855;-60
2023/03/08 12:02:28;;;;;;;2.50;1.73;;;;;;;;;;5055282;28;20552;-59
2023/03/08 12:05:12;;;;;;;5.33;1.33;;;;;;;;;;5055040;28;20523;-59
2023/03/08 12:07:40;;;;;;;1.33;1.23;;;;;;;;;;5054892;28;20484;-59
2023/03/08 12:10:23;;;;;;;1.30;1.30;;;;;;;;;;5053759;28;20422;-59
2023/03/08 12:12:58;;;;;;;1.20;1.10;;;;;;;;;;5054638;28;20411;-58
2023/03/08 12:15:27;;;;;;;1.93;1.10;;;;;;;;;;5053894;28;20422;-58
2023/03/08 12:17:56;;;;;;;1.00;0.90;;;;;;;;;;5054279;28;20438;-58
2023/03/08 12:20:22;;;;;;;1.13;1.00;;;;;;;;;;5054536;28;20411;-58
2023/03/08 12:22:51;;;;;;;2.87;1.10;;;;;;;;;;5054376;28;20504;-58
2023/03/08 12:25:17;;;;;;;0.70;0.70;;;;;;;;;;5054299;28;20957;-58
2023/03/08 12:28:04;;;;;;;1.13;0.60;;;;;;;;;;5054675;28;20442;-58
2023/03/08 12:30:33;;;;;;;0.50;0.50;;;;;;;;;;5054167;28;20503;-58
2023/03/08 12:33:01;;;;;;;0.80;0.67;;;;;;;;;;5054351;28;20427;-58
2023/03/08 12:35:29;;;;;;;0.80;0.60;;;;;;;;;;5054263;28;20437;-60
2023/03/08 12:37:56;;;;;;;0.80;0.80;;;;;;;;;;5054177;28;20848;-57
2023/03/08 12:40:27;;;;;;;0.63;0.63;;;;;;;;;;5054227;28;20433;-60
2023/03/08 12:43:03;;;;;;;1.97;0.57;;;;;;;;;;5054158;28;20437;-60
2023/03/08 12:45:30;;;;;;;0.70;0.50;;;;;;;;;;5053874;28;20458;-60
2023/03/08 12:47:59;;;;;;;0.50;0.50;;;;;;;;;;5054018;28;20525;-60
2023/03/08 12:50:27;;;;;;;0.50;0.50;;;;;;;;;;5053635;28;20976;-60
2023/03/08 12:52:55;;;;;;;0.60;0.60;;;;;;;;;;5053814;28;20855;-60
2023/03/08 12:55:32;;;;;;;2.27;0.73;;;;;;;;;;5053389;28;20902;-60
2023/03/08 12:58:03;;;;;;;0.50;0.50;;;;;;;;;;5053919;28;20850;-60
2023/03/08 13:00:34;;;;;;;0.77;0.77;;;;;;;;;;5053664;28;20914;-60
2023/03/08 13:03:00;;;;;;;1.07;1.07;;;;;;;;;;5053119;28;20799;-65
2023/03/08 13:05:27;;;;;;;0.77;0.43;;;;;;;;;;5051869;28;20478;-59
2023/03/08 13:08:11;;;;;;;1.80;0.60;;;;;;;;;;5053372;28;20537;-59
2023/03/08 13:10:53;;;;;;;1.07;0.83;;;;;;;;;;5053713;28;20767;-59
2023/03/08 13:13:28;;;;;;;1.07;0.67;;;;;;;;;;5053452;28;20878;-59
2023/03/08 13:16:04;;;;;;;1.00;0.90;;;;;;;;;;5053688;28;20402;-59
2023/03/08 13:18:31;;;;;;;0.93;0.93;;;;;;;;;;5053523;28;20847;-58
2023/03/08 13:20:56;;;;;;;0.70;0.70;;;;;;;;;;5053327;28;20411;-59
2023/03/08 13:23:32;;;;;;;0.60;0.60;;;;;;;;;;5053056;28;21023;-58
2023/03/08 13:26:04;;;;;;;1.03;0.60;;;;;;;;;;5053674;28;20442;-59
2023/03/08 13:28:34;;;;;;;0.77;0.77;;;;;;;;;;5053666;28;20430;-58
2023/03/08 13:31:01;;;;;;;0.70;0.70;;;;;;;;;;5053315;28;20430;-59
2023/03/08 13:33:29;;;;;;;0.90;0.60;;;;;;;;;;5053101;28;20473;-59
2023/03/08 13:36:05;;;;;;;1.00;1.00;;;;;;;;;;5053159;28;20902;-59
2023/03/08 13:38:35;;;;;;;0.80;0.80;;;;;;;;;;5053183;28;20417;-59
2023/03/08 13:41:01;;;;;;;0.67;0.67;;;;;;;;;;5053180;28;20830;-59
2023/03/08 13:43:32;;;;;;;1.23;0.53;;;;;;;;;;5052884;28;20425;-60
2023/03/08 13:46:10;;;;;;;0.70;0.70;;;;;;;;;;5053031;28;20477;-60
2023/03/08 13:48:38;;;;;;;0.60;0.60;;;;;;;;;;5051716;28;20461;-60
2023/03/08 13:51:04;;;;;;;0.90;0.90;;;;;;;;;;5053311;28;20485;-58
2023/03/08 13:53:32;;;;;;;0.50;0.50;;;;;;;;;;5053014;28;20427;-58
2023/03/08 13:56:03;;;;;;;0.77;0.77;;;;;;;;;;5053145;28;20507;-58
2023/03/08 13:58:36;;;;;;;0.87;0.87;;;;;;;;;;5052996;28;20439;-58
2023/03/08 14:01:02;;;;;;;0.63;0.63;;;;;;;;;;5053174;28;20419;-58
2023/03/08 14:03:30;;;;;;;0.70;0.70;;;;;;;;;;5052872;28;20586;-59
2023/03/08 14:05:59;;;;;;;1.43;1.33;;;;;;;;;;5052796;28;20412;-60
2023/03/08 14:08:26;;;;;;;1.77;0.80;;;;;;;;;;5052687;28;20438;-59
2023/03/08 14:10:55;;;;;;;0.57;0.50;;;;;;;;;;5052820;28;20411;-59
2023/03/08 14:13:34;;;;;;;1.83;0.80;;;;;;;;;;5052587;28;20487;-59
2023/03/08 14:16:04;;;;;;;0.90;0.90;;;;;;;;;;5052243;28;20416;-59
2023/03/08 14:18:35;;;;;;;2.13;0.80;;;;;;;;;;5052291;28;20440;-60
2023/03/08 14:21:15;;;;;;;3.43;0.87;;;;;;;;;;5052617;28;20423;-59
2023/03/08 14:23:45;;;;;;;9.83;1.20;;;;;;;;;;5052346;28;20481;-59
2023/03/08 14:26:30;;;;;;;0.87;0.87;;;;;;;;;;5052771;28;20521;-59
2023/03/08 14:29:11;;;;;;;1.17;0.80;;;;;;;;;;5052642;28;20435;-59
2023/03/08 14:31:38;;;;;;;0.70;0.70;;;;;;;;;;5052511;28;20460;-59
2023/03/08 14:34:04;;;;;;;0.60;0.60;;;;;;;;;;5052256;28;20426;-59
2023/03/08 14:36:32;;;;;;;0.50;0.50;;;;;;;;;;5052591;28;20803;-59